sensor_id;sensor_type;location;lat;lon;timestamp;pressure;altitude;pressure_sealevel;temperature;humidity
2184;BME280;1098;48.940;8.962;2022-07-29T00:01:47;98358.06;;;19.01;100.00
2184;BME280;1098;48.940;8.962;2022-07-29T00:04:15;98354.63;;;19.19;100.00
2184;BME280;1098;48.940;8.962;2022-07-29T00:06:44;98359.03;;;19.15;100.00
2184;BME280;1098;48.940;8.962;2022-07-29T00:09:12;98351.59;;;19.21;100.00
2184;BME280;1098;48.940;8.962;2022-07-29T00:11:40;98348.25;;;19.29;100.00
2184;BME280;1098;48.940;8.962;2022-07-29T00:14:08;98339.38;;;19.42;100.00
2184;BME280;1098;48.940;8.962;2022-07-29T00:16:36;98334.66;;;19.48;100.00
2184;BME280;1098;48.940;8.962;2022-07-29T00:19:08;98325.91;;;19.75;100.00
2184;BME280;1098;48.940;8.962;2022-07-29T00:21:36;98333.84;;;19.47;100.00
2184;BME280;1098;48.940;8.962;2022-07-29T00:24:04;98335.84;;;19.37;100.00
2184;BME280;1098;48.940;8.962;2022-07-29T00:26:33;98340.16;;;19.14;100.00
2184;BME280;1098;48.940;8.962;2022-07-29T00:29:02;98341.41;;;19.32;100.00
2184;BME280;1098;48.940;8.962;2022-07-29T00:31:52;98351.25;;;18.94;100.00
2184;BME280;1098;48.940;8.962;2022-07-29T00:34:22;98345.28;;;18.86;100.00
2184;BME280;1098;48.940;8.962;2022-07-29T00:37:07;98340.28;;;18.99;100.00
2184;BME280;1098;48.940;8.962;2022-07-29T00:39:37;98334.81;;;18.94;100.00
2184;BME280;1098;48.940;8.962;2022-07-29T00:42:06;98336.72;;;18.98;100.00
2184;BME280;1098;48.940;8.962;2022-07-29T00:44:37;98350.28;;;18.74;100.00
2184;BME280;1098;48.940;8.962;2022-07-29T00:47:06;98348.84;;;18.87;100.00
2184;BME280;1098;48.940;8.962;2022-07-29T00:49:36;98338.66;;;18.93;100.00
2184;BME280;1098;48.940;8.962;2022-07-29T00:52:06;98334.69;;;18.75;100.00
2184;BME280;1098;48.940;8.962;2022-07-29T00:54:35;98337.13;;;18.76;100.00
2184;BME280;1098;48.940;8.962;2022-07-29T00:57:12;98324.94;;;18.98;100.00
2184;BME280;1098;48.940;8.962;2022-07-29T00:59:40;98309.38;;;19.27;100.00
2184;BME280;1098;48.940;8.962;2022-07-29T01:02:08;98306.19;;;19.15;100.00
2184;BME280;1098;48.940;8.962;2022-07-29T01:04:38;98310.84;;;19.14;100.00
2184;BME280;1098;48.940;8.962;2022-07-29T01:07:07;98304.72;;;19.28;100.00
2184;BME280;1098;48.940;8.962;2022-07-29T01:09:35;98301.25;;;19.46;100.00
2184;BME280;1098;48.940;8.962;2022-07-29T01:12:13;98314.00;;;19.32;100.00
2184;BME280;1098;48.940;8.962;2022-07-29T01:14:43;98309.09;;;19.29;100.00
2184;BME280;1098;48.940;8.962;2022-07-29T01:17:13;98300.47;;;19.40;100.00
2184;BME280;1098;48.940;8.962;2022-07-29T01:19:48;98307.63;;;19.36;100.00
2184;BME280;1098;48.940;8.962;2022-07-29T01:22:31;98305.63;;;19.47;100.00
2184;BME280;1098;48.940;8.962;2022-07-29T01:25:17;98305.53;;;19.28;100.00
2184;BME280;1098;48.940;8.962;2022-07-29T01:27:51;98299.03;;;19.19;100.00
2184;BME280;1098;48.940;8.962;2022-07-29T01:30:32;98299.94;;;19.38;100.00
2184;BME280;1098;48.940;8.962;2022-07-29T01:33:01;98299.97;;;19.33;100.00
2184;BME280;1098;48.940;8.962;2022-07-29T01:35:31;98298.25;;;19.42;100.00
2184;BME280;1098;48.940;8.962;2022-07-29T01:38:04;98305.53;;;19.57;100.00
2184;BME280;1098;48.940;8.962;2022-07-29T01:40:33;98297.31;;;19.57;100.00
2184;BME280;1098;48.940;8.962;2022-07-29T01:43:03;98292.75;;;19.47;100.00
2184;BME280;1098;48.940;8.962;2022-07-29T01:45:37;98292.50;;;19.44;100.00
2184;BME280;1098;48.940;8.962;2022-07-29T01:48:12;98284.16;;;19.30;100.00
2184;BME280;1098;48.940;8.962;2022-07-29T01:50:55;98301.69;;;19.29;100.00
2184;BME280;1098;48.940;8.962;2022-07-29T01:53:28;98298.19;;;18.90;100.00
2184;BME280;1098;48.940;8.962;2022-07-29T01:56:04;98315.34;;;18.61;100.00
2184;BME280;1098;48.940;8.962;2022-07-29T01:58:33;98329.66;;;18.38;100.00
2184;BME280;1098;48.940;8.962;2022-07-29T02:01:07;98334.69;;;18.10;100.00
2184;BME280;1098;48.940;8.962;2022-07-29T02:03:36;98343.31;;;17.63;100.00
2184;BME280;1098;48.940;8.962;2022-07-29T02:06:06;98344.69;;;17.45;100.00
2184;BME280;1098;48.940;8.962;2022-07-29T02:08:35;98348.25;;;17.66;100.00
2184;BME280;1098;48.940;8.962;2022-07-29T02:11:04;98343.84;;;17.55;100.00
2184;BME280;1098;48.940;8.962;2022-07-29T02:13:33;98346.59;;;17.50;100.00
2184;BME280;1098;48.940;8.962;2022-07-29T02:16:05;98352.31;;;17.74;100.00
2184;BME280;1098;48.940;8.962;2022-07-29T02:18:35;98341.66;;;17.62;100.00
2184;BME280;1098;48.940;8.962;2022-07-29T02:21:04;98347.72;;;17.24;100.00
2184;BME280;1098;48.940;8.962;2022-07-29T02:23:40;98358.34;;;17.10;100.00
2184;BME280;1098;48.940;8.962;2022-07-29T02:26:17;98371.72;;;16.96;100.00
2184;BME280;1098;48.940;8.962;2022-07-29T02:28:45;98373.88;;;16.89;100.00
2184;BME280;1098;48.940;8.962;2022-07-29T02:31:13;98380.97;;;16.80;100.00
2184;BME280;1098;48.940;8.962;2022-07-29T02:33:44;98389.13;;;16.75;100.00
2184;BME280;1098;48.940;8.962;2022-07-29T02:36:13;98389.44;;;16.89;100.00
2184;BME280;1098;48.940;8.962;2022-07-29T02:38:43;98389.44;;;16.89;100.00
2184;BME280;1098;48.940;8.962;2022-07-29T02:41:18;98389.75;;;17.02;100.00
2184;BME280;1098;48.940;8.962;2022-07-29T02:43:48;98361.06;;;17.10;100.00
2184;BME280;1098;48.940;8.962;2022-07-29T02:46:18;98375.81;;;17.04;100.00
2184;BME280;1098;48.940;8.962;2022-07-29T02:49:00;98370.09;;;17.10;100.00
2184;BME280;1098;48.940;8.962;2022-07-29T02:51:32;98367.63;;;17.09;100.00
2184;BME280;1098;48.940;8.962;2022-07-29T02:54:11;98375.00;;;17.34;100.00
2184;BME280;1098;48.940;8.962;2022-07-29T02:56:42;98372.00;;;17.15;100.00
2184;BME280;1098;48.940;8.962;2022-07-29T02:59:12;98374.19;;;17.38;100.00
2184;BME280;1098;48.940;8.962;2022-07-29T03:01:42;98373.38;;;17.12;100.00
2184;BME280;1098;48.940;8.962;2022-07-29T03:04:12;98382.88;;;16.79;100.00
2184;BME280;1098;48.940;8.962;2022-07-29T03:06:42;98385.03;;;16.72;100.00
2184;BME280;1098;48.940;8.962;2022-07-29T03:09:11;98387.22;;;16.70;100.00
2184;BME280;1098;48.940;8.962;2022-07-29T03:11:39;98396.69;;;16.63;100.00
2184;BME280;1098;48.940;8.962;2022-07-29T03:14:17;98397.56;;;16.68;100.00
2184;BME280;1098;48.940;8.962;2022-07-29T03:16:49;98396.47;;;16.69;100.00
2184;BME280;1098;48.940;8.962;2022-07-29T03:19:19;98388.59;;;16.88;100.00
2184;BME280;1098;48.940;8.962;2022-07-29T03:21:48;98370.06;;;16.80;100.00
2184;BME280;1098;48.940;8.962;2022-07-29T03:24:30;98383.19;;;17.08;100.00
2184;BME280;1098;48.940;8.962;2022-07-29T03:26:58;98362.72;;;17.16;100.00
2184;BME280;1098;48.940;8.962;2022-07-29T03:29:26;98357.81;;;17.13;100.00
2184;BME280;1098;48.940;8.962;2022-07-29T03:32:01;98353.41;;;17.47;100.00
2184;BME280;1098;48.940;8.962;2022-07-29T03:34:35;98348.78;;;17.33;100.00
2184;BME280;1098;48.940;8.962;2022-07-29T03:37:04;98354.00;;;17.19;100.00
2184;BME280;1098;48.940;8.962;2022-07-29T03:39:35;98364.91;;;17.04;100.00
2184;BME280;1098;48.940;8.962;2022-07-29T03:42:04;98365.19;;;17.38;100.00
2184;BME280;1098;48.940;8.962;2022-07-29T03:44:34;98352.88;;;17.50;100.00
2184;BME280;1098;48.940;8.962;2022-07-29T03:47:03;98340.84;;;17.06;100.00
2184;BME280;1098;48.940;8.962;2022-07-29T03:49:35;98361.91;;;17.36;100.00
2184;BME280;1098;48.940;8.962;2022-07-29T03:52:06;98347.69;;;17.29;100.00
2184;BME280;1098;48.940;8.962;2022-07-29T03:54:35;98347.41;;;17.35;100.00
2184;BME280;1098;48.940;8.962;2022-07-29T03:57:03;98354.53;;;17.31;100.00
2184;BME280;1098;48.940;8.962;2022-07-29T03:59:33;98357.81;;;17.18;100.00
2184;BME280;1098;48.940;8.962;2022-07-29T04:02:01;98359.16;;;17.51;100.00
2184;BME280;1098;48.940;8.962;2022-07-29T04:04:31;98348.75;;;17.48;100.00
2184;BME280;1098;48.940;8.962;2022-07-29T04:07:01;98346.63;;;17.65;100.00
2184;BME280;1098;48.940;8.962;2022-07-29T04:09:29;98344.38;;;17.72;100.00
2184;BME280;1098;48.940;8.962;2022-07-29T04:11:57;98337.47;;;18.05;100.00
2184;BME280;1098;48.940;8.962;2022-07-29T04:14:33;98325.75;;;17.95;100.00
2184;BME280;1098;48.940;8.962;2022-07-29T04:17:02;98335.91;;;17.69;100.00
2184;BME280;1098;48.940;8.962;2022-07-29T04:19:31;98346.31;;;17.67;100.00
2184;BME280;1098;48.940;8.962;2022-07-29T04:22:00;98346.19;;;18.12;100.00
2184;BME280;1098;48.940;8.962;2022-07-29T04:24:30;98345.41;;;17.97;100.00
2184;BME280;1098;48.940;8.962;2022-07-29T04:26:58;98346.78;;;17.99;100.00
2184;BME280;1098;48.940;8.962;2022-07-29T04:29:26;98328.25;;;17.76;100.00
2184;BME280;1098;48.940;8.962;2022-07-29T04:31:56;98342.47;;;17.58;100.00
2184;BME280;1098;48.940;8.962;2022-07-29T04:34:24;98349.59;;;17.53;100.00
2184;BME280;1098;48.940;8.962;2022-07-29T04:36:54;98338.94;;;17.62;100.00
2184;BME280;1098;48.940;8.962;2022-07-29T04:39:22;98343.78;;;17.96;100.00
2184;BME280;1098;48.940;8.962;2022-07-29T04:41:54;98346.84;;;17.79;100.00
2184;BME280;1098;48.940;8.962;2022-07-29T04:44:25;98347.41;;;17.71;100.00
2184;BME280;1098;48.940;8.962;2022-07-29T04:46:55;98340.03;;;17.61;100.00
2184;BME280;1098;48.940;8.962;2022-07-29T04:49:23;98364.06;;;16.93;100.00
2184;BME280;1098;48.940;8.962;2022-07-29T04:51:52;98379.06;;;16.91;100.00
2184;BME280;1098;48.940;8.962;2022-07-29T04:54:20;98382.63;;;16.96;100.00
2184;BME280;1098;48.940;8.962;2022-07-29T04:56:48;98376.34;;;17.46;100.00
2184;BME280;1098;48.940;8.962;2022-07-29T04:59:17;98356.06;;;18.03;100.00
2184;BME280;1098;48.940;8.962;2022-07-29T05:01:45;98340.56;;;18.48;100.00
2184;BME280;1098;48.940;8.962;2022-07-29T05:04:14;98322.78;;;18.95;100.00
2184;BME280;1098;48.940;8.962;2022-07-29T05:06:45;98330.88;;;18.11;100.00
2184;BME280;1098;48.940;8.962;2022-07-29T05:09:13;98350.63;;;17.93;100.00
2184;BME280;1098;48.940;8.962;2022-07-29T05:11:41;98358.88;;;17.83;100.00
2184;BME280;1098;48.940;8.962;2022-07-29T05:14:09;98360.47;;;17.94;100.00
2184;BME280;1098;48.940;8.962;2022-07-29T05:16:38;98356.56;;;18.10;100.00
2184;BME280;1098;48.940;8.962;2022-07-29T05:19:07;98361.00;;;18.06;100.00
2184;BME280;1098;48.940;8.962;2022-07-29T05:21:42;98366.41;;;18.11;100.00
2184;BME280;1098;48.940;8.962;2022-07-29T05:24:11;98363.03;;;18.45;100.00
2184;BME280;1098;48.940;8.962;2022-07-29T05:26:41;98361.97;;;18.36;100.00
2184;BME280;1098;48.940;8.962;2022-07-29T05:29:10;98374.53;;;18.42;100.00
2184;BME280;1098;48.940;8.962;2022-07-29T05:32:00;98352.97;;;19.23;100.00
2184;BME280;1098;48.940;8.962;2022-07-29T05:34:28;98364.94;;;18.94;100.00
2184;BME280;1098;48.940;8.962;2022-07-29T05:36:56;98358.75;;;19.17;100.00
2184;BME280;1098;48.940;8.962;2022-07-29T05:39:24;98349.25;;;19.38;100.00
2184;BME280;1098;48.940;8.962;2022-07-29T05:42:12;98341.56;;;19.98;100.00
2184;BME280;1098;48.940;8.962;2022-07-29T05:44:40;98309.41;;;21.21;100.00
2184;BME280;1098;48.940;8.962;2022-07-29T05:47:10;98311.94;;;21.50;100.00
2184;BME280;1098;48.940;8.962;2022-07-29T05:49:38;98325.28;;;20.73;100.00
2184;BME280;1098;48.940;8.962;2022-07-29T05:52:06;98315.69;;;20.89;100.00
2184;BME280;1098;48.940;8.962;2022-07-29T05:54:34;98327.31;;;20.44;100.00
2184;BME280;1098;48.940;8.962;2022-07-29T05:57:05;98341.22;;;19.81;100.00
2184;BME280;1098;48.940;8.962;2022-07-29T05:59:34;98331.63;;;20.50;100.00
2184;BME280;1098;48.940;8.962;2022-07-29T06:02:03;98340.63;;;20.08;100.00
2184;BME280;1098;48.940;8.962;2022-07-29T06:04:33;98349.03;;;20.16;100.00
2184;BME280;1098;48.940;8.962;2022-07-29T06:07:01;98346.09;;;20.37;100.00
2184;BME280;1098;48.940;8.962;2022-07-29T06:09:29;98343.28;;;20.79;100.00
2184;BME280;1098;48.940;8.962;2022-07-29T06:12:02;98331.72;;;21.66;100.00
2184;BME280;1098;48.940;8.962;2022-07-29T06:14:30;98334.06;;;21.08;100.00
2184;BME280;1098;48.940;8.962;2022-07-29T06:16:59;98354.41;;;20.50;100.00
2184;BME280;1098;48.940;8.962;2022-07-29T06:19:30;98351.84;;;20.97;100.00
2184;BME280;1098;48.940;8.962;2022-07-29T06:21:59;98342.31;;;20.51;100.00
2184;BME280;1098;48.940;8.962;2022-07-29T06:24:27;98359.84;;;20.32;100.00
2184;BME280;1098;48.940;8.962;2022-07-29T06:26:55;98369.28;;;20.20;100.00
2184;BME280;1098;48.940;8.962;2022-07-29T06:29:23;98342.47;;;20.60;100.00
2184;BME280;1098;48.940;8.962;2022-07-29T06:31:52;98367.41;;;20.64;100.00
2184;BME280;1098;48.940;8.962;2022-07-29T06:34:20;98359.00;;;21.63;100.00
2184;BME280;1098;48.940;8.962;2022-07-29T06:36:48;98356.19;;;21.16;100.00
2184;BME280;1098;48.940;8.962;2022-07-29T06:39:19;98356.31;;;21.44;100.00
2184;BME280;1098;48.940;8.962;2022-07-29T06:41:48;98356.75;;;21.51;100.00
2184;BME280;1098;48.940;8.962;2022-07-29T06:44:17;98355.03;;;21.55;100.00
2184;BME280;1098;48.940;8.962;2022-07-29T06:46:49;98364.44;;;21.35;100.00
2184;BME280;1098;48.940;8.962;2022-07-29T06:49:18;98371.41;;;21.09;100.00
2184;BME280;1098;48.940;8.962;2022-07-29T06:51:46;98357.34;;;21.48;100.00
2184;BME280;1098;48.940;8.962;2022-07-29T06:54:14;98352.50;;;22.32;100.00
2184;BME280;1098;48.940;8.962;2022-07-29T06:56:45;98360.19;;;23.21;100.00
2184;BME280;1098;48.940;8.962;2022-07-29T06:59:13;98348.31;;;23.87;100.00
2184;BME280;1098;48.940;8.962;2022-07-29T07:01:42;98362.31;;;22.88;100.00
2184;BME280;1098;48.940;8.962;2022-07-29T07:04:13;98353.00;;;22.34;100.00
2184;BME280;1098;48.940;8.962;2022-07-29T07:06:42;98356.81;;;23.69;100.00
2184;BME280;1098;48.940;8.962;2022-07-29T07:09:11;98364.38;;;22.69;100.00
2184;BME280;1098;48.940;8.962;2022-07-29T07:11:41;98364.16;;;22.92;100.00
2184;BME280;1098;48.940;8.962;2022-07-29T07:14:10;98371.75;;;21.58;100.00
2184;BME280;1098;48.940;8.962;2022-07-29T07:16:38;98364.31;;;22.60;100.00
2184;BME280;1098;48.940;8.962;2022-07-29T07:19:06;98357.50;;;23.52;100.00
2184;BME280;1098;48.940;8.962;2022-07-29T07:21:35;98356.69;;;22.43;100.00
2184;BME280;1098;48.940;8.962;2022-07-29T07:24:03;98364.22;;;22.24;100.00
2184;BME280;1098;48.940;8.962;2022-07-29T07:26:31;98365.97;;;22.20;100.00
2184;BME280;1098;48.940;8.962;2022-07-29T07:28:59;98363.38;;;22.51;100.00
2184;BME280;1098;48.940;8.962;2022-07-29T07:31:30;98368.59;;;22.11;100.00
2184;BME280;1098;48.940;8.962;2022-07-29T07:34:01;98359.53;;;22.24;100.00
2184;BME280;1098;48.940;8.962;2022-07-29T07:36:29;98364.81;;;23.34;100.00
2184;BME280;1098;48.940;8.962;2022-07-29T07:38:57;98371.72;;;22.87;100.00
2184;BME280;1098;48.940;8.962;2022-07-29T07:41:25;98365.47;;;23.53;100.00
2184;BME280;1098;48.940;8.962;2022-07-29T07:43:58;98365.09;;;23.69;100.00
2184;BME280;1098;48.940;8.962;2022-07-29T07:46:26;98367.66;;;22.57;100.00
2184;BME280;1098;48.940;8.962;2022-07-29T07:48:56;98368.50;;;22.44;100.00
2184;BME280;1098;48.940;8.962;2022-07-29T07:51:24;98373.47;;;23.19;100.00
2184;BME280;1098;48.940;8.962;2022-07-29T07:53:52;98371.66;;;23.81;100.00
2184;BME280;1098;48.940;8.962;2022-07-29T07:56:20;98369.63;;;23.06;100.00
2184;BME280;1098;48.940;8.962;2022-07-29T07:58:48;98374.78;;;22.72;100.00
2184;BME280;1098;48.940;8.962;2022-07-29T08:01:16;98373.06;;;24.01;100.00
2184;BME280;1098;48.940;8.962;2022-07-29T08:03:46;98374.88;;;24.54;100.00
2184;BME280;1098;48.940;8.962;2022-07-29T08:06:15;98367.94;;;24.74;100.00
2184;BME280;1098;48.940;8.962;2022-07-29T08:08:44;98372.69;;;23.49;100.00
2184;BME280;1098;48.940;8.962;2022-07-29T08:11:12;98365.84;;;24.79;100.00
2184;BME280;1098;48.940;8.962;2022-07-29T08:13:40;98369.44;;;24.71;100.00
2184;BME280;1098;48.940;8.962;2022-07-29T08:16:08;98368.25;;;24.63;100.00
2184;BME280;1098;48.940;8.962;2022-07-29T08:18:40;98369.94;;;24.73;100.00
2184;BME280;1098;48.940;8.962;2022-07-29T08:21:08;98369.78;;;23.99;100.00
2184;BME280;1098;48.940;8.962;2022-07-29T08:23:42;98366.13;;;24.52;100.00
2184;BME280;1098;48.940;8.962;2022-07-29T08:26:25;98374.94;;;24.62;100.00
2184;BME280;1098;48.940;8.962;2022-07-29T08:28:53;98374.28;;;24.65;100.00
2184;BME280;1098;48.940;8.962;2022-07-29T08:31:24;98371.16;;;24.58;100.00
2184;BME280;1098;48.940;8.962;2022-07-29T08:33:52;98381.38;;;23.79;100.00
2184;BME280;1098;48.940;8.962;2022-07-29T08:36:20;98376.22;;;23.86;100.00
2184;BME280;1098;48.940;8.962;2022-07-29T08:38:50;98369.00;;;25.29;97.58
2184;BME280;1098;48.940;8.962;2022-07-29T08:41:18;98366.34;;;24.73;97.45
2184;BME280;1098;48.940;8.962;2022-07-29T08:43:47;98369.25;;;24.76;93.56
2184;BME280;1098;48.940;8.962;2022-07-29T08:46:15;98372.91;;;25.28;94.73
2184;BME280;1098;48.940;8.962;2022-07-29T08:48:44;98363.63;;;25.24;88.78
2184;BME280;1098;48.940;8.962;2022-07-29T08:51:13;98368.00;;;25.43;90.18
2184;BME280;1098;48.940;8.962;2022-07-29T08:53:42;98366.22;;;25.21;88.61
2184;BME280;1098;48.940;8.962;2022-07-29T08:56:12;98370.94;;;25.38;87.91
2184;BME280;1098;48.940;8.962;2022-07-29T08:58:41;98367.38;;;25.20;81.98
2184;BME280;1098;48.940;8.962;2022-07-29T09:01:16;98366.72;;;25.23;78.85
2184;BME280;1098;48.940;8.962;2022-07-29T09:03:45;98363.91;;;25.57;78.80
2184;BME280;1098;48.940;8.962;2022-07-29T09:06:14;98365.91;;;24.96;84.33
2184;BME280;1098;48.940;8.962;2022-07-29T09:08:42;98370.63;;;25.56;82.31
2184;BME280;1098;48.940;8.962;2022-07-29T09:11:12;98364.38;;;25.85;77.42
2184;BME280;1098;48.940;8.962;2022-07-29T09:13:41;98356.78;;;25.74;75.41
2184;BME280;1098;48.940;8.962;2022-07-29T09:16:09;98364.53;;;25.89;79.84
2184;BME280;1098;48.940;8.962;2022-07-29T09:18:37;98362.63;;;25.72;78.28
2184;BME280;1098;48.940;8.962;2022-07-29T09:21:07;98368.19;;;25.29;77.33
2184;BME280;1098;48.940;8.962;2022-07-29T09:24:03;98362.00;;;25.66;78.46
2184;BME280;1098;48.940;8.962;2022-07-29T09:26:33;98373.19;;;25.79;77.78
2184;BME280;1098;48.940;8.962;2022-07-29T09:29:07;98365.63;;;26.05;75.31
2184;BME280;1098;48.940;8.962;2022-07-29T09:31:37;98360.66;;;26.37;71.48
2184;BME280;1098;48.940;8.962;2022-07-29T09:34:06;98360.81;;;26.23;72.01
2184;BME280;1098;48.940;8.962;2022-07-29T09:36:38;98360.41;;;26.50;74.27
2184;BME280;1098;48.940;8.962;2022-07-29T09:39:06;98355.47;;;26.56;74.37
2184;BME280;1098;48.940;8.962;2022-07-29T09:41:46;98353.78;;;25.87;68.33
2184;BME280;1098;48.940;8.962;2022-07-29T09:44:15;98351.13;;;26.08;69.41
2184;BME280;1098;48.940;8.962;2022-07-29T09:46:56;98348.00;;;26.10;61.62
2184;BME280;1098;48.940;8.962;2022-07-29T09:49:25;98334.31;;;26.51;57.90
2184;BME280;1098;48.940;8.962;2022-07-29T09:52:00;98344.41;;;26.56;55.42
2184;BME280;1098;48.940;8.962;2022-07-29T09:54:28;98338.66;;;26.23;56.10
2184;BME280;1098;48.940;8.962;2022-07-29T09:57:05;98335.06;;;26.22;57.44
2184;BME280;1098;48.940;8.962;2022-07-29T09:59:33;98346.31;;;26.26;57.71
2184;BME280;1098;48.940;8.962;2022-07-29T10:02:16;98348.50;;;26.12;54.71
2184;BME280;1098;48.940;8.962;2022-07-29T10:04:49;98336.91;;;26.18;53.80
2184;BME280;1098;48.940;8.962;2022-07-29T10:07:17;98345.75;;;26.41;53.92
2184;BME280;1098;48.940;8.962;2022-07-29T10:09:49;98341.78;;;26.80;52.66
2184;BME280;1098;48.940;8.962;2022-07-29T10:12:18;98341.91;;;26.33;52.03
2184;BME280;1098;48.940;8.962;2022-07-29T10:14:50;98341.97;;;26.54;51.31
2184;BME280;1098;48.940;8.962;2022-07-29T10:17:18;98340.75;;;26.34;52.88
2184;BME280;1098;48.940;8.962;2022-07-29T10:19:46;98352.13;;;27.00;52.45
2184;BME280;1098;48.940;8.962;2022-07-29T10:22:16;98347.91;;;26.65;50.77
2184;BME280;1098;48.940;8.962;2022-07-29T10:25:04;98346.97;;;27.11;52.49
2184;BME280;1098;48.940;8.962;2022-07-29T10:27:34;98336.78;;;26.74;53.71
2184;BME280;1098;48.940;8.962;2022-07-29T10:30:02;98331.09;;;26.99;51.29
2184;BME280;1098;48.940;8.962;2022-07-29T10:32:37;98337.34;;;27.29;50.27
2184;BME280;1098;48.940;8.962;2022-07-29T10:35:19;98339.84;;;27.43;49.81
2184;BME280;1098;48.940;8.962;2022-07-29T10:38:07;98341.69;;;27.51;48.03
2184;BME280;1098;48.940;8.962;2022-07-29T10:40:45;98341.94;;;27.04;50.61
2184;BME280;1098;48.940;8.962;2022-07-29T10:43:56;98335.50;;;26.92;50.25
2184;BME280;1098;48.940;8.962;2022-07-29T10:46:25;98330.13;;;26.95;50.30
2184;BME280;1098;48.940;8.962;2022-07-29T10:49:07;98321.94;;;27.53;48.82
2184;BME280;1098;48.940;8.962;2022-07-29T10:51:56;98331.09;;;26.99;49.31
2184;BME280;1098;48.940;8.962;2022-07-29T10:54:36;98333.47;;;26.80;49.22
2184;BME280;1098;48.940;8.962;2022-07-29T10:57:16;98328.97;;;27.17;48.16
2184;BME280;1098;48.940;8.962;2022-07-29T11:03:45;98319.97;;;27.53;46.44
2184;BME280;1098;48.940;8.962;2022-07-29T11:10:21;98308.38;;;27.39;44.20
2184;BME280;1098;48.940;8.962;2022-07-29T11:12:59;98312.38;;;27.29;43.84
2184;BME280;1098;48.940;8.962;2022-07-29T11:15:27;98311.84;;;27.81;45.08
2184;BME280;1098;48.940;8.962;2022-07-29T11:18:07;98300.28;;;27.46;44.84
2184;BME280;1098;48.940;8.962;2022-07-29T11:20:44;98311.09;;;28.05;45.87
2184;BME280;1098;48.940;8.962;2022-07-29T11:23:22;98299.44;;;27.66;47.06
2184;BME280;1098;48.940;8.962;2022-07-29T11:26:16;98299.50;;;28.27;48.17
2184;BME280;1098;48.940;8.962;2022-07-29T11:28:50;98304.41;;;28.43;44.35
2184;BME280;1098;48.940;8.962;2022-07-29T11:31:19;98300.34;;;28.40;44.09
2184;BME280;1098;48.940;8.962;2022-07-29T11:39:35;98299.63;;;28.19;46.61
2184;BME280;1098;48.940;8.962;2022-07-29T11:45:01;98310.59;;;28.88;45.12
2184;BME280;1098;48.940;8.962;2022-07-29T11:47:53;98305.41;;;28.50;45.06
2184;BME280;1098;48.940;8.962;2022-07-29T11:50:34;98300.78;;;28.54;44.57
2184;BME280;1098;48.940;8.962;2022-07-29T11:53:03;98307.75;;;28.36;45.00
2184;BME280;1098;48.940;8.962;2022-07-29T11:55:40;98315.22;;;28.72;44.93
2184;BME280;1098;48.940;8.962;2022-07-29T11:58:21;98306.69;;;28.53;44.98
2184;BME280;1098;48.940;8.962;2022-07-29T12:00:52;98306.47;;;28.46;44.89
2184;BME280;1098;48.940;8.962;2022-07-29T12:03:23;98305.44;;;28.26;45.41
2184;BME280;1098;48.940;8.962;2022-07-29T12:06:11;98313.63;;;27.98;48.15
2184;BME280;1098;48.940;8.962;2022-07-29T12:08:44;98307.88;;;28.39;45.51
2184;BME280;1098;48.940;8.962;2022-07-29T12:11:17;98302.63;;;28.14;48.55
2184;BME280;1098;48.940;8.962;2022-07-29T12:13:48;98302.84;;;27.84;48.03
2184;BME280;1098;48.940;8.962;2022-07-29T12:16:17;98298.00;;;28.18;46.67
2184;BME280;1098;48.940;8.962;2022-07-29T12:18:59;98306.44;;;27.85;46.25
2184;BME280;1098;48.940;8.962;2022-07-29T12:21:41;98313.34;;;27.79;47.07
2184;BME280;1098;48.940;8.962;2022-07-29T12:24:22;98308.22;;;27.68;47.72
2184;BME280;1098;48.940;8.962;2022-07-29T12:26:54;98314.38;;;27.62;45.17
2184;BME280;1098;48.940;8.962;2022-07-29T12:29:23;98318.38;;;27.31;47.65
2184;BME280;1098;48.940;8.962;2022-07-29T12:32:01;98318.25;;;27.28;46.74
2184;BME280;1098;48.940;8.962;2022-07-29T12:34:32;98324.06;;;27.35;47.12
2184;BME280;1098;48.940;8.962;2022-07-29T12:37:01;98314.81;;;27.10;48.77
2184;BME280;1098;48.940;8.962;2022-07-29T12:39:30;98315.19;;;27.42;46.86
2184;BME280;1098;48.940;8.962;2022-07-29T12:41:59;98308.50;;;27.88;45.72
2184;BME280;1098;48.940;8.962;2022-07-29T12:44:43;98303.66;;;27.52;45.83
2184;BME280;1098;48.940;8.962;2022-07-29T12:47:11;98312.69;;;27.28;47.05
2184;BME280;1098;48.940;8.962;2022-07-29T12:49:41;98308.84;;;27.41;46.55
2184;BME280;1098;48.940;8.962;2022-07-29T12:52:25;98310.56;;;27.46;47.06
2184;BME280;1098;48.940;8.962;2022-07-29T12:54:54;98318.09;;;27.90;45.67
2184;BME280;1098;48.940;8.962;2022-07-29T12:57:23;98311.53;;;28.07;46.12
2184;BME280;1098;48.940;8.962;2022-07-29T13:00:05;98306.50;;;27.64;47.33
2184;BME280;1098;48.940;8.962;2022-07-29T13:02:34;98308.47;;;27.63;47.50
2184;BME280;1098;48.940;8.962;2022-07-29T13:05:04;98317.63;;;27.43;48.78
2184;BME280;1098;48.940;8.962;2022-07-29T13:07:33;98314.84;;;27.76;44.11
2184;BME280;1098;48.940;8.962;2022-07-29T13:10:22;98323.53;;;27.75;47.12
2184;BME280;1098;48.940;8.962;2022-07-29T13:13:02;98321.47;;;28.08;45.12
2184;BME280;1098;48.940;8.962;2022-07-29T13:15:30;98324.97;;;28.05;44.20
2184;BME280;1098;48.940;8.962;2022-07-29T13:18:01;98321.84;;;28.19;45.50
2184;BME280;1098;48.940;8.962;2022-07-29T13:20:30;98327.84;;;27.96;44.89
2184;BME280;1098;48.940;8.962;2022-07-29T13:22:59;98326.31;;;27.75;44.76
2184;BME280;1098;48.940;8.962;2022-07-29T13:25:28;98319.66;;;27.34;42.83
2184;BME280;1098;48.940;8.962;2022-07-29T13:27:57;98331.53;;;27.55;43.44
2184;BME280;1098;48.940;8.962;2022-07-29T13:30:27;98331.69;;;28.16;44.78
2184;BME280;1098;48.940;8.962;2022-07-29T13:32:56;98323.34;;;28.04;43.55
2184;BME280;1098;48.940;8.962;2022-07-29T13:35:26;98329.81;;;28.08;42.41
2184;BME280;1098;48.940;8.962;2022-07-29T13:37:56;98328.19;;;28.07;43.54
2184;BME280;1098;48.940;8.962;2022-07-29T13:40:24;98327.66;;;27.68;42.58
2184;BME280;1098;48.940;8.962;2022-07-29T13:42:53;98335.59;;;27.91;42.83
2184;BME280;1098;48.940;8.962;2022-07-29T13:45:23;98327.44;;;27.61;42.44
2184;BME280;1098;48.940;8.962;2022-07-29T13:47:58;98333.56;;;27.46;44.15
2184;BME280;1098;48.940;8.962;2022-07-29T13:50:26;98334.16;;;27.40;43.20
2184;BME280;1098;48.940;8.962;2022-07-29T13:52:54;98334.38;;;27.47;42.81
2184;BME280;1098;48.940;8.962;2022-07-29T13:55:22;98320.84;;;27.66;42.05